Portada
METAR-TAF:

METAR-TAF

Aeroports :

Wasilla, Alaska, Estats Units d'Amèrica

latitud: 61-34-19N, longitud: 149-32-26W, altitud: 106 m

Observació

L'informe es va fer fa 26 minuts, a les 04:56 UTC
Vent 9 kt del Est/Nord-Est
Temperatura 4°C
Humitat 65%
Pressió 1000 hPa
Visibilitat: 16.1 km
Cel clar

METAR: PAWS 110456Z AUTO 06009KT 10SM CLR 04/M02 A2953 RMK AO2 SLP007 T00391022

Hora: 20:22 (05:22 UTC)


TAF: manca

Observacions i pronòstics meteorològics de més de 4000 aeroports (METAR i TAF).

Les estacions disponibles són els punts grocs i vermells al mapa.

Posi el ratolí al punt desitjat per veure el nom de l'estació.

Feu clic per veure les observacions i els pronòstics meteorològics.

Per canviar el mapa: feu clic els botons verds amb una creu de color negre per apropar; al botó verd amb un guió per allunyar la imatge; o en les fletxes verdes per a mapes adjacents.


METAR-TAF: